首页
METAR-TAF:

METAR-TAF

机场 :

因戈尔施塔特, 德国

纬度: 48-43N, 经度: 011-32E, 海拔: 367米

当前天气观测

该预报发布于26分钟前的14:20 UTC
风速7节,风向西
温度 5°C
湿度 75%
气压 1025 hPa
能见度10公里或以上

METAR: ETSI 181420Z AUTO 26007KT 9999 // ////// 05/01 Q1025 ///

时间: 15:46 (14:46 UTC)

预报

该预报发布于27小时和46分钟前的11:00 UTC
预报有效从17日的 12点(UTC)到 17日的 21点(UTC)
风速3节,风向西转西南
能见度10公里或以上
少量云层高于800英尺
散云层高于26000英尺
短暂存在
从 17日的 12点(UTC)到 17日的 20点(UTC)
风速3节,风向东转东南
能見度: 8000
散云层高于800英尺
散云层高于26000英尺
成为
从 17日的 18点(UTC)到 17日的 20点(UTC)
风速3节,风向西转西南
能見度: 1200
多云层高于3500英尺
多云层高于26000英尺

TAF: ETSI 171100Z 1712/1721 24003KT 9999 NSW FEW008 SCT260 TEMPO 1712/1720 11003KT 8000 NSW SCT008 SCT260 BECMG 1718/1720 24003KT 9999 NSW BKN035 BKN260 CANCEL 1200

超过4000个机场的气象观测和天气预报(METAR&TAF报告)。

可查询的气象台以黄色和红色小点在地图上表示。

将鼠标移到小点上方,可查看气象台名称。

然后点击查看天气观测和预报。

如需切换地图:点击带黑十字的绿色按钮放大地图;点击带横线的绿色按钮缩小地图;或者点击绿色箭头查看邻近地区的地图。


METAR-TAF: